sensor_id;sensor_type;location;lat;lon;timestamp;pressure;altitude;pressure_sealevel;temperature;humidity
12172;BME280;6149;52.418;13.668;2022-07-03T00:01:16;101643.91;;;15.49;75.50
12172;BME280;6149;52.418;13.668;2022-07-03T00:03:43;101645.78;;;15.47;76.19
12172;BME280;6149;52.418;13.668;2022-07-03T00:06:10;101643.38;;;15.43;76.03
12172;BME280;6149;52.418;13.668;2022-07-03T00:08:39;101634.78;;;15.37;75.71
12172;BME280;6149;52.418;13.668;2022-07-03T00:11:06;101634.97;;;15.34;75.43
12172;BME280;6149;52.418;13.668;2022-07-03T00:13:32;101637.78;;;15.31;75.03
12172;BME280;6149;52.418;13.668;2022-07-03T00:15:59;101636.06;;;15.30;76.20
12172;BME280;6149;52.418;13.668;2022-07-03T00:18:26;101635.38;;;15.27;75.91
12172;BME280;6149;52.418;13.668;2022-07-03T00:20:57;101629.38;;;15.23;76.31
12172;BME280;6149;52.418;13.668;2022-07-03T00:23:28;101634.03;;;15.20;76.45
12172;BME280;6149;52.418;13.668;2022-07-03T00:25:58;101629.75;;;15.17;77.37
12172;BME280;6149;52.418;13.668;2022-07-03T00:28:28;101633.34;;;15.16;76.92
12172;BME280;6149;52.418;13.668;2022-07-03T00:30:55;101623.72;;;15.14;76.75
12172;BME280;6149;52.418;13.668;2022-07-03T00:33:22;101628.28;;;15.12;77.43
12172;BME280;6149;52.418;13.668;2022-07-03T00:35:51;101630.25;;;15.08;77.64
12172;BME280;6149;52.418;13.668;2022-07-03T00:38:21;101620.69;;;15.04;77.76
12172;BME280;6149;52.418;13.668;2022-07-03T00:40:50;101619.16;;;15.00;77.69
12172;BME280;6149;52.418;13.668;2022-07-03T00:43:17;101620.16;;;14.97;77.60
12172;BME280;6149;52.418;13.668;2022-07-03T00:45:46;101614.31;;;14.91;77.98
12172;BME280;6149;52.418;13.668;2022-07-03T00:48:15;101620.75;;;14.87;78.28
12172;BME280;6149;52.418;13.668;2022-07-03T00:50:44;101617.44;;;14.83;79.08
12172;BME280;6149;52.418;13.668;2022-07-03T00:53:12;101622.91;;;14.80;79.33
12172;BME280;6149;52.418;13.668;2022-07-03T00:55:40;101621.38;;;14.76;79.11
12172;BME280;6149;52.418;13.668;2022-07-03T00:58:10;101625.91;;;14.74;79.66
12172;BME280;6149;52.418;13.668;2022-07-03T01:00:39;101619.97;;;14.69;79.67
12172;BME280;6149;52.418;13.668;2022-07-03T01:03:07;101612.22;;;14.64;79.44
12172;BME280;6149;52.418;13.668;2022-07-03T01:05:43;101618.72;;;14.59;79.10
12172;BME280;6149;52.418;13.668;2022-07-03T01:08:18;101607.38;;;14.55;79.35
12172;BME280;6149;52.418;13.668;2022-07-03T01:10:54;101607.63;;;14.51;79.57
12172;BME280;6149;52.418;13.668;2022-07-03T01:13:37;101616.84;;;14.45;79.51
12172;BME280;6149;52.418;13.668;2022-07-03T01:16:17;101616.19;;;14.40;79.86
12172;BME280;6149;52.418;13.668;2022-07-03T01:18:53;101613.69;;;14.37;79.88
12172;BME280;6149;52.418;13.668;2022-07-03T01:21:28;101606.78;;;14.33;80.18
12172;BME280;6149;52.418;13.668;2022-07-03T01:27:11;101606.41;;;14.23;80.55
12172;BME280;6149;52.418;13.668;2022-07-03T01:29:49;101600.38;;;14.20;80.83
12172;BME280;6149;52.418;13.668;2022-07-03T01:32:19;101598.75;;;14.17;81.06
12172;BME280;6149;52.418;13.668;2022-07-03T01:34:51;101594.50;;;14.13;81.21
12172;BME280;6149;52.418;13.668;2022-07-03T01:37:22;101600.88;;;14.11;81.43
12172;BME280;6149;52.418;13.668;2022-07-03T01:39:52;101593.13;;;14.06;81.67
12172;BME280;6149;52.418;13.668;2022-07-03T01:42:58;101589.84;;;14.01;81.92
12172;BME280;6149;52.418;13.668;2022-07-03T01:45:27;101583.81;;;13.97;81.85
12172;BME280;6149;52.418;13.668;2022-07-03T01:47:56;101593.75;;;13.94;82.07
12172;BME280;6149;52.418;13.668;2022-07-03T01:50:25;101591.25;;;13.91;82.12
12172;BME280;6149;52.418;13.668;2022-07-03T01:52:56;101589.53;;;13.90;82.33
12172;BME280;6149;52.418;13.668;2022-07-03T01:55:29;101579.13;;;13.85;82.32
12172;BME280;6149;52.418;13.668;2022-07-03T01:57:59;101579.28;;;13.82;82.78
12172;BME280;6149;52.418;13.668;2022-07-03T02:00:27;101597.19;;;13.79;83.07
12172;BME280;6149;52.418;13.668;2022-07-03T02:02:57;101589.44;;;13.74;83.38
12172;BME280;6149;52.418;13.668;2022-07-03T02:05:32;101587.81;;;13.71;83.78
12172;BME280;6149;52.418;13.668;2022-07-03T02:08:10;101590.72;;;13.67;84.08
12172;BME280;6149;52.418;13.668;2022-07-03T02:10:41;101587.34;;;13.63;83.98
12172;BME280;6149;52.418;13.668;2022-07-03T02:13:22;101588.44;;;13.59;84.61
12172;BME280;6149;52.418;13.668;2022-07-03T02:15:51;101588.59;;;13.56;84.52
12172;BME280;6149;52.418;13.668;2022-07-03T02:18:25;101584.19;;;13.55;85.26
12172;BME280;6149;52.418;13.668;2022-07-03T02:21:03;101582.47;;;13.54;85.21
12172;BME280;6149;52.418;13.668;2022-07-03T02:23:36;101579.13;;;13.51;85.72
12172;BME280;6149;52.418;13.668;2022-07-03T02:26:08;101579.25;;;13.48;85.40
12172;BME280;6149;52.418;13.668;2022-07-03T02:28:51;101585.66;;;13.44;85.43
12172;BME280;6149;52.418;13.668;2022-07-03T02:31:24;101587.47;;;13.43;85.94
12172;BME280;6149;52.418;13.668;2022-07-03T02:33:56;101586.66;;;13.41;86.05
12172;BME280;6149;52.418;13.668;2022-07-03T02:36:27;101581.50;;;13.38;86.53
12172;BME280;6149;52.418;13.668;2022-07-03T02:38:56;101580.75;;;13.36;87.03
12172;BME280;6149;52.418;13.668;2022-07-03T02:41:28;101586.13;;;13.34;87.16
12172;BME280;6149;52.418;13.668;2022-07-03T02:44:14;101578.31;;;13.31;87.01
12172;BME280;6149;52.418;13.668;2022-07-03T02:46:52;101583.69;;;13.30;87.51
12172;BME280;6149;52.418;13.668;2022-07-03T02:49:41;101581.28;;;13.25;87.80
12172;BME280;6149;52.418;13.668;2022-07-03T02:52:14;101585.00;;;13.21;87.88
12172;BME280;6149;52.418;13.668;2022-07-03T02:54:48;101578.97;;;13.18;87.67
12172;BME280;6149;52.418;13.668;2022-07-03T02:57:18;101574.59;;;13.17;88.12
12172;BME280;6149;52.418;13.668;2022-07-03T02:59:54;101580.84;;;13.16;87.89
12172;BME280;6149;52.418;13.668;2022-07-03T03:02:40;101578.22;;;13.14;88.22
12172;BME280;6149;52.418;13.668;2022-07-03T03:05:26;101573.00;;;13.13;88.58
12172;BME280;6149;52.418;13.668;2022-07-03T03:08:16;101579.16;;;13.13;89.60
12172;BME280;6149;52.418;13.668;2022-07-03T03:10:50;101575.66;;;13.13;89.41
12172;BME280;6149;52.418;13.668;2022-07-03T03:13:18;101585.47;;;13.11;90.00
12172;BME280;6149;52.418;13.668;2022-07-03T03:15:57;101574.94;;;13.09;89.92
12172;BME280;6149;52.418;13.668;2022-07-03T03:18:28;101582.03;;;13.09;90.29
12172;BME280;6149;52.418;13.668;2022-07-03T03:20:59;101574.94;;;13.09;90.34
12172;BME280;6149;52.418;13.668;2022-07-03T03:23:34;101577.66;;;13.07;90.52
12172;BME280;6149;52.418;13.668;2022-07-03T03:26:04;101582.91;;;13.09;90.14
12172;BME280;6149;52.418;13.668;2022-07-03T03:28:31;101582.03;;;13.09;90.57
12172;BME280;6149;52.418;13.668;2022-07-03T03:31:00;101583.75;;;13.10;90.83
12172;BME280;6149;52.418;13.668;2022-07-03T03:33:26;101573.13;;;13.10;90.83
12172;BME280;6149;52.418;13.668;2022-07-03T03:35:54;101579.38;;;13.09;92.04
12172;BME280;6149;52.418;13.668;2022-07-03T03:38:20;101580.38;;;13.06;91.78
12172;BME280;6149;52.418;13.668;2022-07-03T03:40:48;101573.28;;;13.06;91.65
12172;BME280;6149;52.418;13.668;2022-07-03T03:43:15;101583.81;;;13.08;91.89
12172;BME280;6149;52.418;13.668;2022-07-03T03:45:42;101581.97;;;13.10;91.68
12172;BME280;6149;52.418;13.668;2022-07-03T03:48:10;101580.09;;;13.12;91.48
12172;BME280;6149;52.418;13.668;2022-07-03T03:50:36;101588.91;;;13.13;91.50
12172;BME280;6149;52.418;13.668;2022-07-03T03:53:04;101586.16;;;13.16;92.18
12172;BME280;6149;52.418;13.668;2022-07-03T03:55:31;101581.63;;;13.18;91.97
12172;BME280;6149;52.418;13.668;2022-07-03T03:57:57;101579.69;;;13.21;92.11
12172;BME280;6149;52.418;13.668;2022-07-03T04:00:26;101576.09;;;13.22;92.74
12172;BME280;6149;52.418;13.668;2022-07-03T04:02:53;101577.75;;;13.25;92.57
12172;BME280;6149;52.418;13.668;2022-07-03T04:05:21;101577.59;;;13.28;92.99
12172;BME280;6149;52.418;13.668;2022-07-03T04:07:47;101571.22;;;13.32;92.37
12172;BME280;6149;52.418;13.668;2022-07-03T04:10:14;101564.97;;;13.33;92.32
12172;BME280;6149;52.418;13.668;2022-07-03T04:12:41;101567.38;;;13.37;92.53
12172;BME280;6149;52.418;13.668;2022-07-03T04:15:08;101565.41;;;13.41;92.44
12172;BME280;6149;52.418;13.668;2022-07-03T04:17:35;101566.06;;;13.46;92.67
12172;BME280;6149;52.418;13.668;2022-07-03T04:20:02;101563.09;;;13.52;92.72
12172;BME280;6149;52.418;13.668;2022-07-03T04:22:30;101563.81;;;13.56;92.36
12172;BME280;6149;52.418;13.668;2022-07-03T04:24:57;101552.09;;;13.60;92.63
12172;BME280;6149;52.418;13.668;2022-07-03T04:27:24;101560.53;;;13.68;92.12
12172;BME280;6149;52.418;13.668;2022-07-03T04:29:50;101559.19;;;13.77;91.88
12172;BME280;6149;52.418;13.668;2022-07-03T04:32:17;101548.00;;;13.87;91.62
12172;BME280;6149;52.418;13.668;2022-07-03T04:34:44;101552.78;;;13.98;90.48
12172;BME280;6149;52.418;13.668;2022-07-03T04:37:10;101563.03;;;14.05;90.50
12172;BME280;6149;52.418;13.668;2022-07-03T04:39:38;101554.63;;;14.13;91.41
12172;BME280;6149;52.418;13.668;2022-07-03T04:42:05;101553.66;;;14.31;91.27
12172;BME280;6149;52.418;13.668;2022-07-03T04:44:32;101543.09;;;14.47;89.27
12172;BME280;6149;52.418;13.668;2022-07-03T04:46:59;101556.72;;;14.57;89.62
12172;BME280;6149;52.418;13.668;2022-07-03T04:49:25;101558.03;;;14.65;89.61
12172;BME280;6149;52.418;13.668;2022-07-03T04:51:52;101558.41;;;14.75;89.66
12172;BME280;6149;52.418;13.668;2022-07-03T04:54:19;101558.47;;;14.89;89.31
12172;BME280;6149;52.418;13.668;2022-07-03T04:56:47;101556.00;;;15.02;88.62
12172;BME280;6149;52.418;13.668;2022-07-03T04:59:14;101554.66;;;15.25;87.65
12172;BME280;6149;52.418;13.668;2022-07-03T05:01:40;101555.88;;;15.35;86.45
12172;BME280;6149;52.418;13.668;2022-07-03T05:04:07;101556.78;;;15.50;86.78
12172;BME280;6149;52.418;13.668;2022-07-03T05:06:33;101552.28;;;15.66;86.41
12172;BME280;6149;52.418;13.668;2022-07-03T05:09:00;101555.19;;;15.77;86.31
12172;BME280;6149;52.418;13.668;2022-07-03T05:11:26;101552.06;;;15.99;83.88
12172;BME280;6149;52.418;13.668;2022-07-03T05:13:54;101547.44;;;16.17;83.75
12172;BME280;6149;52.418;13.668;2022-07-03T05:16:21;101547.94;;;16.23;84.55
12172;BME280;6149;52.418;13.668;2022-07-03T05:18:47;101552.50;;;16.35;83.76
12172;BME280;6149;52.418;13.668;2022-07-03T05:21:14;101547.81;;;16.53;82.49
12172;BME280;6149;52.418;13.668;2022-07-03T05:23:40;101547.13;;;16.92;81.04
12172;BME280;6149;52.418;13.668;2022-07-03T05:26:07;101544.53;;;17.05;80.67
12172;BME280;6149;52.418;13.668;2022-07-03T05:28:33;101557.03;;;17.31;79.77
12172;BME280;6149;52.418;13.668;2022-07-03T05:31:02;101538.50;;;17.55;77.12
12172;BME280;6149;52.418;13.668;2022-07-03T05:33:29;101535.66;;;17.84;76.01
12172;BME280;6149;52.418;13.668;2022-07-03T05:35:56;101526.16;;;17.92;75.70
12172;BME280;6149;52.418;13.668;2022-07-03T05:38:23;101528.44;;;18.11;75.41
12172;BME280;6149;52.418;13.668;2022-07-03T05:41:10;101534.63;;;18.37;73.94
12172;BME280;6149;52.418;13.668;2022-07-03T05:43:37;101532.09;;;18.59;72.28
12172;BME280;6149;52.418;13.668;2022-07-03T05:46:05;101541.97;;;18.72;74.31
12172;BME280;6149;52.418;13.668;2022-07-03T05:48:32;101528.44;;;18.86;71.92
12172;BME280;6149;52.418;13.668;2022-07-03T05:50:59;101527.38;;;19.12;71.12
12172;BME280;6149;52.418;13.668;2022-07-03T05:53:25;101532.88;;;19.46;70.62
12172;BME280;6149;52.418;13.668;2022-07-03T05:55:52;101528.00;;;19.75;67.93
12172;BME280;6149;52.418;13.668;2022-07-03T05:58:19;101537.09;;;20.07;66.42
12172;BME280;6149;52.418;13.668;2022-07-03T06:00:45;101540.00;;;20.39;65.43
12172;BME280;6149;52.418;13.668;2022-07-03T06:03:13;101533.13;;;20.68;63.21
12172;BME280;6149;52.418;13.668;2022-07-03T06:05:40;101534.06;;;21.01;61.78
12172;BME280;6149;52.418;13.668;2022-07-03T06:08:07;101535.59;;;21.26;59.48
12172;BME280;6149;52.418;13.668;2022-07-03T06:10:34;101531.25;;;21.46;59.85
12172;BME280;6149;52.418;13.668;2022-07-03T06:13:01;101523.91;;;21.68;57.59
12172;BME280;6149;52.418;13.668;2022-07-03T06:15:27;101525.75;;;21.89;58.39
12172;BME280;6149;52.418;13.668;2022-07-03T06:17:54;101523.00;;;22.21;58.24
12172;BME280;6149;52.418;13.668;2022-07-03T06:20:22;101522.13;;;22.51;56.65
12172;BME280;6149;52.418;13.668;2022-07-03T06:22:49;101523.22;;;22.79;55.73
12172;BME280;6149;52.418;13.668;2022-07-03T06:25:15;101518.31;;;23.03;54.99
12172;BME280;6149;52.418;13.668;2022-07-03T06:27:42;101519.31;;;23.12;53.88
12172;BME280;6149;52.418;13.668;2022-07-03T06:30:09;101511.97;;;23.33;53.52
12172;BME280;6149;52.418;13.668;2022-07-03T06:32:36;101518.50;;;23.59;52.68
12172;BME280;6149;52.418;13.668;2022-07-03T06:35:04;101512.34;;;23.86;52.36
12172;BME280;6149;52.418;13.668;2022-07-03T06:37:33;101507.50;;;23.90;49.80
12172;BME280;6149;52.418;13.668;2022-07-03T06:39:59;101514.19;;;23.86;49.66
12172;BME280;6149;52.418;13.668;2022-07-03T06:42:26;101509.88;;;24.12;49.28
12172;BME280;6149;52.418;13.668;2022-07-03T06:44:53;101509.84;;;24.31;49.05
12172;BME280;6149;52.418;13.668;2022-07-03T06:47:20;101522.03;;;24.45;47.92
12172;BME280;6149;52.418;13.668;2022-07-03T06:49:47;101523.03;;;24.44;47.63
12172;BME280;6149;52.418;13.668;2022-07-03T06:52:14;101526.03;;;24.41;46.62
12172;BME280;6149;52.418;13.668;2022-07-03T06:54:45;101512.53;;;24.59;49.77
12172;BME280;6149;52.418;13.668;2022-07-03T06:57:12;101510.53;;;24.61;46.10
12172;BME280;6149;52.418;13.668;2022-07-03T06:59:39;101507.09;;;24.69;48.03
12172;BME280;6149;52.418;13.668;2022-07-03T07:02:06;101516.72;;;24.81;46.88
12172;BME280;6149;52.418;13.668;2022-07-03T07:04:33;101502.38;;;24.98;47.85
12172;BME280;6149;52.418;13.668;2022-07-03T07:07:01;101508.66;;;25.16;46.70
12172;BME280;6149;52.418;13.668;2022-07-03T07:09:27;101505.94;;;25.34;45.36
12172;BME280;6149;52.418;13.668;2022-07-03T07:11:55;101489.69;;;25.52;44.27
12172;BME280;6149;52.418;13.668;2022-07-03T07:14:22;101471.97;;;25.57;44.60
12172;BME280;6149;52.418;13.668;2022-07-03T07:16:48;101473.25;;;25.71;44.53
12172;BME280;6149;52.418;13.668;2022-07-03T07:19:15;101475.50;;;25.76;44.66
12172;BME280;6149;52.418;13.668;2022-07-03T07:21:41;101475.22;;;25.61;43.40
12172;BME280;6149;52.418;13.668;2022-07-03T07:24:10;101472.63;;;25.77;44.03
12172;BME280;6149;52.418;13.668;2022-07-03T07:26:37;101470.56;;;25.97;43.25
12172;BME280;6149;52.418;13.668;2022-07-03T07:29:05;101467.72;;;26.07;42.01
12172;BME280;6149;52.418;13.668;2022-07-03T07:31:32;101472.06;;;26.25;44.24
12172;BME280;6149;52.418;13.668;2022-07-03T07:33:58;101470.13;;;26.36;41.74
12172;BME280;6149;52.418;13.668;2022-07-03T07:36:25;101468.34;;;26.26;41.60
12172;BME280;6149;52.418;13.668;2022-07-03T07:38:51;101468.31;;;26.52;42.75
12172;BME280;6149;52.418;13.668;2022-07-03T07:41:18;101463.09;;;26.67;42.75
12172;BME280;6149;52.418;13.668;2022-07-03T07:43:44;101460.22;;;26.77;41.10
12172;BME280;6149;52.418;13.668;2022-07-03T07:46:12;101465.16;;;26.73;41.62
12172;BME280;6149;52.418;13.668;2022-07-03T07:48:39;101468.50;;;26.59;40.26
12172;BME280;6149;52.418;13.668;2022-07-03T07:51:10;101463.03;;;26.51;41.38
12172;BME280;6149;52.418;13.668;2022-07-03T07:53:37;101464.78;;;26.60;42.93
12172;BME280;6149;52.418;13.668;2022-07-03T07:56:04;101459.22;;;26.78;41.11
12172;BME280;6149;52.418;13.668;2022-07-03T07:58:31;101461.13;;;26.93;40.98
12172;BME280;6149;52.418;13.668;2022-07-03T08:00:57;101464.25;;;27.23;41.12
12172;BME280;6149;52.418;13.668;2022-07-03T08:03:43;101451.84;;;27.20;40.98
12172;BME280;6149;52.418;13.668;2022-07-03T08:06:26;101451.00;;;27.20;40.95
12172;BME280;6149;52.418;13.668;2022-07-03T08:08:53;101453.38;;;27.39;41.91
12172;BME280;6149;52.418;13.668;2022-07-03T08:11:20;101451.00;;;27.36;39.59
12172;BME280;6149;52.418;13.668;2022-07-03T08:13:46;101449.47;;;27.25;40.20
12172;BME280;6149;52.418;13.668;2022-07-03T08:16:13;101454.41;;;27.46;41.48
12172;BME280;6149;52.418;13.668;2022-07-03T08:18:40;101447.44;;;27.60;38.97
12172;BME280;6149;52.418;13.668;2022-07-03T08:21:08;101448.28;;;27.77;39.62
12172;BME280;6149;52.418;13.668;2022-07-03T08:23:35;101450.09;;;28.01;39.62
12172;BME280;6149;52.418;13.668;2022-07-03T08:26:02;101444.63;;;28.01;38.19
12172;BME280;6149;52.418;13.668;2022-07-03T08:28:28;101457.06;;;27.87;37.60
12172;BME280;6149;52.418;13.668;2022-07-03T08:30:55;101450.31;;;27.75;37.72
12172;BME280;6149;52.418;13.668;2022-07-03T08:33:22;101445.16;;;27.96;38.03
12172;BME280;6149;52.418;13.668;2022-07-03T08:35:49;101440.75;;;27.87;37.08
12172;BME280;6149;52.418;13.668;2022-07-03T08:38:17;101449.53;;;28.13;37.79
12172;BME280;6149;52.418;13.668;2022-07-03T08:40:44;101436.03;;;28.36;36.66
12172;BME280;6149;52.418;13.668;2022-07-03T08:43:11;101437.28;;;28.17;36.23
12172;BME280;6149;52.418;13.668;2022-07-03T08:45:38;101431.81;;;28.25;36.26
12172;BME280;6149;52.418;13.668;2022-07-03T08:48:07;101428.75;;;28.28;36.91
12172;BME280;6149;52.418;13.668;2022-07-03T08:50:35;101418.69;;;28.37;36.40
12172;BME280;6149;52.418;13.668;2022-07-03T08:53:03;101434.13;;;28.45;36.67
12172;BME280;6149;52.418;13.668;2022-07-03T08:55:31;101425.09;;;28.52;36.32
12172;BME280;6149;52.418;13.668;2022-07-03T08:58:00;101424.91;;;28.77;36.40
12172;BME280;6149;52.418;13.668;2022-07-03T09:00:28;101428.97;;;28.81;36.66
12172;BME280;6149;52.418;13.668;2022-07-03T09:02:56;101425.03;;;28.91;35.61
12172;BME280;6149;52.418;13.668;2022-07-03T09:05:23;101411.50;;;29.21;36.46
12172;BME280;6149;52.418;13.668;2022-07-03T09:07:51;101424.09;;;29.45;37.81
12172;BME280;6149;52.418;13.668;2022-07-03T09:10:19;101409.84;;;29.57;34.97
12172;BME280;6149;52.418;13.668;2022-07-03T09:12:48;101409.72;;;29.51;35.61
12172;BME280;6149;52.418;13.668;2022-07-03T09:15:16;101413.47;;;29.50;34.37
12172;BME280;6149;52.418;13.668;2022-07-03T09:18:01;101406.16;;;29.50;34.76
12172;BME280;6149;52.418;13.668;2022-07-03T09:20:33;101407.69;;;29.68;34.05
12172;BME280;6149;52.418;13.668;2022-07-03T09:23:12;101398.78;;;30.03;34.29
12172;BME280;6149;52.418;13.668;2022-07-03T09:25:50;101408.72;;;30.40;34.62
12172;BME280;6149;52.418;13.668;2022-07-03T09:28:23;101402.03;;;30.43;34.91
12172;BME280;6149;52.418;13.668;2022-07-03T09:31:01;101395.47;;;29.93;33.69
12172;BME280;6149;52.418;13.668;2022-07-03T09:33:28;101393.88;;;30.13;33.59
12172;BME280;6149;52.418;13.668;2022-07-03T09:35:55;101394.16;;;30.54;33.87
12172;BME280;6149;52.418;13.668;2022-07-03T09:38:22;101381.63;;;30.24;32.85
12172;BME280;6149;52.418;13.668;2022-07-03T09:40:50;101396.28;;;30.38;33.73
12172;BME280;6149;52.418;13.668;2022-07-03T09:43:24;101387.09;;;30.45;35.00
12172;BME280;6149;52.418;13.668;2022-07-03T09:45:53;101387.19;;;30.52;32.71
12172;BME280;6149;52.418;13.668;2022-07-03T09:48:26;101378.22;;;30.37;32.34
12172;BME280;6149;52.418;13.668;2022-07-03T09:51:17;101389.50;;;30.34;33.76
12172;BME280;6149;52.418;13.668;2022-07-03T09:53:48;101381.47;;;30.62;33.93
12172;BME280;6149;52.418;13.668;2022-07-03T09:56:23;101384.00;;;31.06;33.96
12172;BME280;6149;52.418;13.668;2022-07-03T09:59:09;101383.16;;;30.63;31.82
12172;BME280;6149;52.418;13.668;2022-07-03T10:01:38;101380.69;;;30.68;31.86
12172;BME280;6149;52.418;13.668;2022-07-03T10:04:15;101383.88;;;30.92;32.27
12172;BME280;6149;52.418;13.668;2022-07-03T10:06:50;101378.97;;;31.09;31.34
12172;BME280;6149;52.418;13.668;2022-07-03T10:09:19;101383.97;;;31.27;31.93
12172;BME280;6149;52.418;13.668;2022-07-03T10:11:48;101370.72;;;31.52;32.39
12172;BME280;6149;52.418;13.668;2022-07-03T10:14:18;101367.84;;;31.67;32.21
12172;BME280;6149;52.418;13.668;2022-07-03T10:16:47;101367.75;;;31.75;30.53
12172;BME280;6149;52.418;13.668;2022-07-03T10:19:15;101368.78;;;31.46;32.16
12172;BME280;6149;52.418;13.668;2022-07-03T10:21:49;101370.03;;;31.15;31.70
12172;BME280;6149;52.418;13.668;2022-07-03T10:24:17;101377.16;;;30.95;31.63
12172;BME280;6149;52.418;13.668;2022-07-03T10:26:46;101377.47;;;30.85;31.86
12172;BME280;6149;52.418;13.668;2022-07-03T10:29:15;101366.09;;;30.82;32.05
12172;BME280;6149;52.418;13.668;2022-07-03T10:31:44;101371.00;;;30.65;32.28
12172;BME280;6149;52.418;13.668;2022-07-03T10:34:18;101359.50;;;30.55;31.73
12172;BME280;6149;52.418;13.668;2022-07-03T10:36:47;101356.97;;;30.17;33.66
12172;BME280;6149;52.418;13.668;2022-07-03T10:39:25;101355.94;;;30.18;33.50
12172;BME280;6149;52.418;13.668;2022-07-03T10:41:59;101358.59;;;29.82;34.56
12172;BME280;6149;52.418;13.668;2022-07-03T10:45:04;101350.81;;;29.65;33.32
12172;BME280;6149;52.418;13.668;2022-07-03T10:47:36;101352.91;;;29.25;33.45
12172;BME280;6149;52.418;13.668;2022-07-03T10:50:07;101348.06;;;29.12;34.60
12172;BME280;6149;52.418;13.668;2022-07-03T10:52:35;101346.31;;;28.97;34.49
12172;BME280;6149;52.418;13.668;2022-07-03T10:55:03;101343.50;;;28.90;34.90
12172;BME280;6149;52.418;13.668;2022-07-03T10:57:32;101334.88;;;28.78;35.38
12172;BME280;6149;52.418;13.668;2022-07-03T11:00:12;101336.47;;;28.73;35.33
12172;BME280;6149;52.418;13.668;2022-07-03T11:02:41;101326.25;;;28.75;35.72
12172;BME280;6149;52.418;13.668;2022-07-03T11:05:11;101324.34;;;28.75;35.46
12172;BME280;6149;52.418;13.668;2022-07-03T11:08:05;101339.13;;;28.58;35.40
12172;BME280;6149;52.418;13.668;2022-07-03T11:10:34;101330.53;;;28.46;33.62
12172;BME280;6149;52.418;13.668;2022-07-03T11:13:07;101329.72;;;28.38;35.22
12172;BME280;6149;52.418;13.668;2022-07-03T11:15:40;101318.75;;;28.23;35.32
12172;BME280;6149;52.418;13.668;2022-07-03T11:18:08;101321.00;;;28.19;35.73
12172;BME280;6149;52.418;13.668;2022-07-03T11:21:02;101320.69;;;28.14;36.16
12172;BME280;6149;52.418;13.668;2022-07-03T11:23:54;101311.53;;;28.07;34.95
12172;BME280;6149;52.418;13.668;2022-07-03T11:26:37;101311.72;;;28.06;37.29
12172;BME280;6149;52.418;13.668;2022-07-03T11:29:04;101298.16;;;27.98;35.21
12172;BME280;6149;52.418;13.668;2022-07-03T11:31:31;101302.38;;;28.00;36.02
12172;BME280;6149;52.418;13.668;2022-07-03T11:34:00;101295.28;;;27.91;37.38
12172;BME280;6149;52.418;13.668;2022-07-03T11:36:28;101295.25;;;27.99;35.59
12172;BME280;6149;52.418;13.668;2022-07-03T11:39:05;101291.31;;;28.02;36.38
12172;BME280;6149;52.418;13.668;2022-07-03T11:41:44;101296.31;;;27.90;37.41
12172;BME280;6149;52.418;13.668;2022-07-03T11:44:17;101300.00;;;27.97;36.93
12172;BME280;6149;52.418;13.668;2022-07-03T11:46:50;101290.00;;;27.98;37.56
12172;BME280;6149;52.418;13.668;2022-07-03T11:49:19;101295.25;;;27.99;37.19
12172;BME280;6149;52.418;13.668;2022-07-03T11:51:56;101291.31;;;28.02;37.36
12172;BME280;6149;52.418;13.668;2022-07-03T11:54:23;101288.06;;;28.06;36.58
12172;BME280;6149;52.418;13.668;2022-07-03T11:56:50;101287.91;;;28.08;36.20
12172;BME280;6149;52.418;13.668;2022-07-03T11:59:17;101269.19;;;28.13;35.26
12172;BME280;6149;52.418;13.668;2022-07-03T12:01:45;101265.97;;;28.09;36.68
12172;BME280;6149;52.418;13.668;2022-07-03T12:04:14;101277.38;;;28.05;36.99
12172;BME280;6149;52.418;13.668;2022-07-03T12:06:43;101263.28;;;28.01;35.58
12172;BME280;6149;52.418;13.668;2022-07-03T12:09:13;101258.88;;;28.00;36.67
12172;BME280;6149;52.418;13.668;2022-07-03T12:11:41;101257.50;;;28.04;38.58
12172;BME280;6149;52.418;13.668;2022-07-03T12:14:08;101260.84;;;28.14;36.65
12172;BME280;6149;52.418;13.668;2022-07-03T12:16:35;101259.72;;;28.32;35.58
12172;BME280;6149;52.418;13.668;2022-07-03T12:19:05;101240.19;;;28.28;35.36
12172;BME280;6149;52.418;13.668;2022-07-03T12:21:38;101245.81;;;28.26;38.15
12172;BME280;6149;52.418;13.668;2022-07-03T12:24:10;101253.34;;;28.16;36.58
12172;BME280;6149;52.418;13.668;2022-07-03T12:26:37;101251.06;;;27.97;36.24
12172;BME280;6149;52.418;13.668;2022-07-03T12:29:06;101254.94;;;28.03;36.85
12172;BME280;6149;52.418;13.668;2022-07-03T12:31:35;101253.94;;;28.04;37.05
12172;BME280;6149;52.418;13.668;2022-07-03T12:34:02;101249.81;;;28.08;37.19
12172;BME280;6149;52.418;13.668;2022-07-03T12:36:28;101254.63;;;27.98;36.65
12172;BME280;6149;52.418;13.668;2022-07-03T12:38:57;101237.44;;;28.05;36.69
12172;BME280;6149;52.418;13.668;2022-07-03T12:41:26;101237.75;;;28.10;37.64
12172;BME280;6149;52.418;13.668;2022-07-03T12:43:53;101235.69;;;28.12;36.01
12172;BME280;6149;52.418;13.668;2022-07-03T12:46:22;101235.31;;;28.15;37.98
12172;BME280;6149;52.418;13.668;2022-07-03T12:48:52;101229.59;;;28.10;36.27
12172;BME280;6149;52.418;13.668;2022-07-03T12:51:40;101229.88;;;28.15;35.21
12172;BME280;6149;52.418;13.668;2022-07-03T12:54:10;101218.28;;;28.44;34.83
12172;BME280;6149;52.418;13.668;2022-07-03T12:56:40;101217.44;;;28.44;34.32
12172;BME280;6149;52.418;13.668;2022-07-03T12:59:23;101224.16;;;28.33;34.93
12172;BME280;6149;52.418;13.668;2022-07-03T13:02:00;101213.88;;;28.43;36.96
12172;BME280;6149;52.418;13.668;2022-07-03T13:04:36;101215.31;;;28.54;36.39
12172;BME280;6149;52.418;13.668;2022-07-03T13:07:04;101203.03;;;28.58;35.59
12172;BME280;6149;52.418;13.668;2022-07-03T13:09:34;101213.84;;;28.66;35.25